AirNav   TITAN Aviation Fuels
 
 1282 users online  

42FD Palm Beach State College Heliport
Lake Worth, Florida, USA

GOING TO LAKE WORTH?


FAA INFORMATION EFFECTIVE 22 APRIL 2021

Location

FAA Identifier: 42FD
Lat/Long: 26-36-36.7800N 080-05-17.1700W
26-36.613000N 080-05.286167W
26.6102167,-80.0881028
(estimated)
Elevation: 13 ft. / 4 m (estimated)
From city: 4 miles W of LAKE WORTH, FL
Time zone: UTC -4 (UTC -5 during Standard Time)
Zip code: 33461

Heliport Operations

Heliport use: Private use. Permission required prior to landing
Activation date: 09/2004
Control tower: no
ARTCC: MIAMI CENTER
FSS: MIAMI FLIGHT SERVICE STATION
Attendance: UNATNDD
Wind indicator: yes
Segmented circle: no

Heliport Communications

WX AWOS-3PT at LNA (1.0 nm S): 119.925 (561-964-0308)
WX ASOS at PBI (4 nm N): 123.75 (561-683-2548)
WX AWOS-3 at BCT (14 nm S): 121.125 (561-391-2696)
WX AWOS-3 at F45 (16 nm NW): 119.975 (561-630-6932)

Nearby radio navigation aids

VOR radial/distance  VOR name  Freq  Var
PBIr184/4.2PALM BEACH VORTAC115.7003W
FLLr013/32.5FORT LAUDERDALE VOR/DME114.4006W
PHKr108/34.0PAHOKEE VOR/DME115.4000E

 
NDB name  Hdg/Dist  Freq  Var  ID
UNITED149/22.340505WUTX ..- - -..-

Heliport Services

Runway Information

Helipad H1

Dimensions: 40 x 40 ft. / 12 x 12 m
Surface: concrete
Operational restrictions: CIRCULAR HELIPAD
Latitude: 26-36.613000N
Longitude: 080-05.286167W
Elevation: 13.0 ft.
Traffic pattern: leftleft

Heliport Ownership and Management from official FAA records

Ownership: Privately-owned
Owner: PALM BEACH STATE COLLEGE
4200 CONGRESS AVENUE
LAKE WORTH, FL 33461
Phone 561-868-3615
Manager: ROBERT PRIOLO
4200 CONGRESS AVENUE
LAKE WORTH, FL 33461
Phone 561-868-3616

Additional Remarks

OWNER DESIRES ARPT NOT BE CHARTED.
FOR CD CTC PALM BEACH APCH AT 561-275-1430

Instrument Procedures

There are no published instrument procedures at 42FD.

Some nearby airports with instrument procedures:

KLNA - Palm Beach County Park Airport (1 nm S)
KPBI - Palm Beach International Airport (4 nm N)
KBCT - Boca Raton Airport (14 nm S)
F45 - North Palm Beach County General Aviation Airport (16 nm NW)
KPMP - Pompano Beach Airpark (22 nm S)
 
Loc | Ops | Rwys | IFR | FBO | Links
Com | Nav | Svcs | Stats | Notes


 
Area around 42FD (Palm Beach State College Heliport)
 
Road maps at: MapQuest Bing Google
 
Aerial photo
No photo
 
Sectional chart

 
Airport distance calculator
Flying to Palm Beach State College Heliport? Find the distance to fly.

From to 42FD

Sunrise and sunset
Times for 05-May-2021
 Local
(UTC-4)
 Zulu
(UTC)
Morning civil twilight06:1610:16
Sunrise06:4010:40
Sunset19:5423:54
Evening civil twilight20:1800:18

Current date and time
Zulu (UTC)  05-May-2021 21:42:14
Local (UTC-4)  05-May-2021 17:42:14
 
METAR
KPBI 
4nm N 
052053Z 16012KT 10SM SCT035 32/20 A3002 RMK AO2 SLP166 T03220200 56013
KBCT 
14nm S 
052033Z 17012KT 10SM CLR 32/21 A3002
KF45 
16nm NW 
052105Z AUTO 12013G16KT 10SM CLR 33/19 A3001 RMK AO2
TAF
KPBI 
4nm N 
051720Z 0518/0618 14012KT P6SM SCT025 BKN050 FM060100 VRB06KT P6SM FEW025 SCT250 FM061400 23008KT P6SM VCSH SCT050
NOTAMs
Click for the latest NOTAMs
NOTAMs are issued by the DoD/FAA and will open in a separate window not controlled by AirNav.

 

 
 

Would you like to see your business listed on this page?

 If your business provides an interesting product or service to pilots, flight crews, aircraft, or users of the Palm Beach State College Heliport, you should consider listing it here.  To start the listing process, click on the button below
 
Add a business
 

Other Pages about Palm Beach State College Heliport

Update a link
 
Copyright © AirNav, LLC. All rights reserved. Privacy Policy  Contact